CheckWX is a tool to help pilots better visualize weather data.  It is not intended as a substitute for an official pre-flight weather briefing.

05:17:29 UTC

FAKM METAR
Kimberley Airport
Kimberley, South Africa
Current

1 hour ago

FAKM 270400Z 20002KT CAVOK 06/03 Q1023
Observed
May-27 @ 04:00 UTC
Wind
  • 200° at 2 KTS
Visibility
10,000+ meters
Flight Rules
VFR
Cloud Levels
  • Clear skies
Temperature
C / 43°F
Dewpoint
C / 37°F
Humidity
81%
Altimeter
30.21" Hg
Pressure
1022.92 hPa
Previous

2 hours ago

FAKM 270300Z 01005KT CAVOK 08/03 Q1023
Observed
May-27 @ 03:00 UTC
Wind
  • 010° at 5 KTS
Visibility
10,000+ meters
Flight Rules
VFR
Cloud Levels
  • Clear skies
Temperature
C / 46°F
Dewpoint
C / 37°F
Humidity
71%
Altimeter
30.21" Hg
Pressure
1022.92 hPa
Previous

3 hours ago

FAKM 270200Z AUTO 28001KT //// // ////// 08/03 Q1023
Observed
May-27 @ 02:00 UTC
Wind
  • 280° at 1 KTS
Visibility
Temperature
C / 46°F
Dewpoint
C / 37°F
Humidity
71%
Altimeter
30.21" Hg
Pressure
1022.92 hPa